Time;durP1;ratioP1;P1;durP2;ratioP2;P2;SDS_P1;SDS_P2;PMS_P1;PMS_P2;Temp;Humidity;BMP_temperature;BMP_pressure;BME280_temperature;BME280_humidity;BME280_pressure;Samples;Min_cycle;Max_cycle;Signal;HPM_P1;HPM_P2
2023/09/07 00:01:03;;;;;;;22.77;21.02;;;16.30;99.90;;;;;;4964010;28;20042;-74
2023/09/07 00:03:30;;;;;;;23.25;21.45;;;16.30;99.90;;;;;;4972315;28;20050;-74
2023/09/07 00:05:57;;;;;;;22.73;20.83;;;16.40;99.90;;;;;;4964669;28;21479;-74
2023/09/07 00:08:25;;;;;;;24.85;22.88;;;16.30;99.90;;;;;;4949760;28;20675;-73
2023/09/07 00:10:52;;;;;;;23.92;21.92;;;16.30;99.90;;;;;;4959175;28;20120;-74
2023/09/07 00:13:19;;;;;;;23.10;21.25;;;16.20;99.90;;;;;;4965176;28;20054;-75
2023/09/07 00:15:46;;;;;;;23.77;22.15;;;16.20;99.90;;;;;;5018719;28;20629;-74
2023/09/07 00:18:12;;;;;;;23.25;21.65;;;16.20;99.90;;;;;;4972984;28;21061;-74
2023/09/07 00:20:40;;;;;;;23.10;21.40;;;16.30;99.90;;;;;;4983432;28;20054;-73
2023/09/07 00:23:07;;;;;;;23.77;22.05;;;16.20;99.90;;;;;;4960013;28;20071;-74
2023/09/07 00:25:33;;;;;;;24.20;22.20;;;16.20;99.90;;;;;;4973237;28;20099;-73
2023/09/07 00:28:00;;;;;;;22.88;21.23;;;16.20;99.90;;;;;;4956125;28;20173;-74
2023/09/07 00:30:27;;;;;;;23.30;21.70;;;16.10;99.90;;;;;;4960264;28;20166;-74
2023/09/07 00:32:54;;;;;;;23.65;21.95;;;16.00;99.90;;;;;;4979487;28;20050;-73
2023/09/07 00:35:21;;;;;;;24.05;22.25;;;16.00;99.90;;;;;;5021942;28;20050;-74
2023/09/07 00:37:47;;;;;;;24.02;22.17;;;15.90;99.90;;;;;;4961461;28;20050;-74
2023/09/07 00:40:14;;;;;;;22.58;20.88;;;16.00;99.90;;;;;;4963064;28;20147;-74
2023/09/07 00:42:41;;;;;;;24.50;22.27;;;16.00;99.90;;;;;;4965534;28;20500;-72
2023/09/07 00:45:08;;;;;;;23.80;21.65;;;16.00;99.90;;;;;;4979929;28;20074;-74
2023/09/07 00:47:38;;;;;;;22.30;20.70;;;16.00;99.90;;;;;;4940416;28;20419;-74
2023/09/07 00:50:06;;;;;;;22.58;21.08;;;16.00;99.90;;;;;;4965855;28;20036;-73
2023/09/07 00:52:35;;;;;;;22.58;20.92;;;15.90;99.90;;;;;;4968805;28;20060;-73
2023/09/07 00:55:04;;;;;;;22.90;21.17;;;15.90;99.90;;;;;;4976506;28;20058;-74
2023/09/07 00:57:31;;;;;;;22.65;21.13;;;15.90;99.90;;;;;;4972033;28;20128;-73
2023/09/07 00:59:58;;;;;;;23.15;21.45;;;15.80;99.90;;;;;;4967722;28;20424;-73
2023/09/07 01:02:25;;;;;;;23.38;21.58;;;15.60;99.90;;;;;;4964717;28;20047;-75
2023/09/07 01:04:53;;;;;;;22.70;21.08;;;15.60;99.90;;;;;;4963559;28;20046;-75
2023/09/07 01:07:33;;;;;;;22.70;20.83;;;15.60;99.90;;;;;;4953261;28;20157;-74
2023/09/07 01:10:02;;;;;;;22.92;21.17;;;15.50;99.90;;;;;;4968716;28;20042;-74
2023/09/07 01:12:30;;;;;;;22.77;21.02;;;15.50;99.90;;;;;;4971012;28;20036;-73
2023/09/07 01:14:58;;;;;;;22.80;20.45;;;15.40;99.90;;;;;;4975716;28;20476;-74
2023/09/07 01:17:25;;;;;;;22.63;20.92;;;15.40;99.90;;;;;;4965037;28;20056;-74
2023/09/07 01:19:53;;;;;;;22.35;20.35;;;15.30;99.90;;;;;;4966955;28;20442;-74
2023/09/07 01:22:22;;;;;;;22.50;20.80;;;15.30;99.90;;;;;;4972428;28;20515;-74
2023/09/07 01:24:51;;;;;;;21.40;19.67;;;15.30;99.90;;;;;;4955754;28;20073;-73
2023/09/07 01:27:19;;;;;;;23.13;21.02;;;15.20;99.90;;;;;;4968616;28;20075;-74
2023/09/07 01:29:46;;;;;;;23.13;21.42;;;15.10;99.90;;;;;;4954652;28;20049;-72
2023/09/07 01:32:13;;;;;;;22.20;20.60;;;15.10;99.90;;;;;;4966077;28;20038;-74
2023/09/07 01:34:40;;;;;;;22.23;20.70;;;15.00;99.90;;;;;;4951431;28;20046;-74
2023/09/07 01:37:08;;;;;;;21.45;19.95;;;14.90;99.90;;;;;;4976370;28;20104;-73
2023/09/07 01:39:35;;;;;;;21.95;20.20;;;15.00;99.90;;;;;;4955479;28;20047;-74
2023/09/07 01:42:02;;;;;;;23.52;21.25;;;14.90;99.90;;;;;;4960387;28;20046;-74
2023/09/07 01:44:29;;;;;;;22.50;20.90;;;14.90;99.90;;;;;;4975468;28;20099;-74
2023/09/07 01:46:56;;;;;;;22.83;20.98;;;15.00;99.90;;;;;;4954902;28;20107;-74
2023/09/07 01:49:23;;;;;;;23.23;21.42;;;15.00;99.90;;;;;;4956854;28;20050;-74
2023/09/07 01:51:52;;;;;;;22.08;20.35;;;15.00;99.90;;;;;;4968143;28;20061;-75
2023/09/07 01:54:21;;;;;;;23.60;21.70;;;14.90;99.90;;;;;;4966200;28;20136;-75
2023/09/07 01:56:48;;;;;;;24.95;22.85;;;15.00;99.90;;;;;;4966558;28;20108;-73
2023/09/07 01:59:14;;;;;;;23.80;22.05;;;14.90;99.90;;;;;;4960373;28;20046;-74
2023/09/07 02:01:41;;;;;;;22.50;20.85;;;15.00;99.90;;;;;;4963397;28;20052;-74
2023/09/07 02:04:09;;;;;;;24.08;22.38;;;15.00;99.90;;;;;;4975096;28;20609;-73
2023/09/07 02:06:35;;;;;;;24.10;21.85;;;15.00;99.90;;;;;;4974752;28;20085;-74
2023/09/07 02:09:04;;;;;;;24.02;22.00;;;15.00;99.90;;;;;;4965852;28;20042;-74
2023/09/07 02:11:31;;;;;;;23.10;21.38;;;15.00;99.90;;;;;;4980891;28;20131;-74
2023/09/07 02:13:57;;;;;;;24.10;22.20;;;15.10;99.90;;;;;;4957142;28;20655;-75
2023/09/07 02:16:25;;;;;;;22.85;21.13;;;15.10;99.90;;;;;;4976818;28;20608;-73
2023/09/07 02:19:01;;;;;;;22.55;20.88;;;15.30;99.90;;;;;;4964293;28;20057;-74
2023/09/07 02:21:31;;;;;;;23.85;21.92;;;15.40;99.90;;;;;;4954830;28;20061;-74
2023/09/07 02:23:57;;;;;;;23.70;21.92;;;15.40;99.90;;;;;;4982824;28;20641;-74
2023/09/07 02:26:24;;;;;;;23.10;21.33;;;15.40;99.90;;;;;;4960213;28;20050;-74
2023/09/07 02:28:51;;;;;;;24.13;22.05;;;15.70;99.90;;;;;;4952609;28;20090;-74
2023/09/07 02:31:18;;;;;;;24.35;22.30;;;15.70;99.90;;;;;;4980580;28;20054;-74
2023/09/07 02:33:45;;;;;;;22.25;20.75;;;15.80;99.90;;;;;;4973107;28;20054;-73
2023/09/07 02:36:12;;;;;;;23.08;21.38;;;15.90;99.90;;;;;;4962132;28;20168;-74
2023/09/07 02:38:39;;;;;;;22.67;21.05;;;16.20;99.90;;;;;;5034177;28;20050;-74
2023/09/07 02:41:05;;;;;;;24.30;22.05;;;16.50;99.90;;;;;;4956248;28;20069;-74
2023/09/07 02:43:33;;;;;;;23.52;21.88;;;16.80;99.90;;;;;;4946661;28;20042;-74
2023/09/07 02:46:00;;;;;;;23.38;21.65;;;17.10;99.90;;;;;;4977170;28;20042;-74
2023/09/07 02:48:27;;;;;;;23.85;21.88;;;17.20;99.90;;;;;;4970322;28;20054;-73
2023/09/07 02:50:53;;;;;;;22.85;21.15;;;17.60;99.90;;;;;;4965154;28;20054;-74
2023/09/07 02:53:22;;;;;;;23.23;21.58;;;17.80;99.90;;;;;;4946968;28;20054;-74
2023/09/07 02:55:49;;;;;;;22.80;20.98;;;18.00;99.90;;;;;;4988030;28;20108;-74
2023/09/07 02:58:16;;;;;;;23.75;22.15;;;18.10;99.90;;;;;;4943100;28;20124;-75
2023/09/07 03:00:44;;;;;;;23.85;22.08;;;18.20;99.90;;;;;;4944857;28;20042;-76
2023/09/07 03:03:14;;;;;;;23.48;21.65;;;18.30;99.90;;;;;;4960747;28;20513;-77
2023/09/07 03:05:43;;;;;;;23.58;21.77;;;18.20;99.90;;;;;;4942995;28;20111;-75
2023/09/07 03:08:10;;;;;;;23.70;21.75;;;18.20;99.90;;;;;;4963195;28;20584;-74
2023/09/07 03:10:39;;;;;;;24.05;22.15;;;18.20;99.90;;;;;;4966197;28;20482;-73
2023/09/07 03:13:08;;;;;;;23.92;22.00;;;18.10;99.90;;;;;;4962850;28;20054;-75
2023/09/07 03:15:35;;;;;;;23.77;22.02;;;18.20;99.90;;;;;;4948120;28;20047;-74
2023/09/07 03:18:05;;;;;;;23.83;21.98;;;18.20;99.90;;;;;;4958289;28;20046;-74
2023/09/07 03:20:34;;;;;;;23.23;21.52;;;18.20;99.90;;;;;;4955820;28;20042;-74
2023/09/07 03:23:02;;;;;;;24.13;22.23;;;18.20;99.90;;;;;;4963522;28;20553;-74
2023/09/07 03:25:29;;;;;;;23.98;22.17;;;18.10;99.90;;;;;;4971632;28;20051;-73
2023/09/07 03:27:56;;;;;;;23.23;21.65;;;18.10;99.90;;;;;;4950512;28;20059;-74
2023/09/07 03:30:22;;;;;;;23.55;21.85;;;18.10;99.90;;;;;;4952881;28;20034;-75
2023/09/07 03:32:49;;;;;;;23.45;21.80;;;18.10;99.90;;;;;;4972692;28;20680;-74
2023/09/07 03:35:17;;;;;;;24.75;22.73;;;18.20;99.90;;;;;;4971973;28;20092;-73
2023/09/07 03:37:43;;;;;;;23.60;22.00;;;18.10;99.90;;;;;;4959212;28;20061;-74
2023/09/07 03:40:10;;;;;;;24.10;22.15;;;18.10;99.90;;;;;;4955237;28;20877;-75
2023/09/07 03:42:39;;;;;;;23.70;21.95;;;18.00;99.90;;;;;;4955812;28;20073;-74
2023/09/07 03:45:07;;;;;;;25.45;23.23;;;18.10;99.90;;;;;;4950463;28;20042;-74
2023/09/07 03:47:34;;;;;;;24.60;22.80;;;18.10;99.90;;;;;;4936494;28;20038;-74
2023/09/07 03:50:01;;;;;;;24.30;22.40;;;18.10;99.90;;;;;;4936422;28;20641;-74
2023/09/07 03:52:30;;;;;;;24.40;22.70;;;18.00;99.90;;;;;;4961909;28;20130;-74
2023/09/07 03:54:59;;;;;;;23.75;22.05;;;18.00;99.90;;;;;;4962474;28;20634;-75
2023/09/07 03:57:27;;;;;;;24.15;22.35;;;18.00;99.90;;;;;;4963234;28;20051;-74
2023/09/07 03:59:56;;;;;;;25.13;23.13;;;17.90;99.90;;;;;;4958812;28;20050;-74
2023/09/07 04:02:24;;;;;;;24.98;23.02;;;17.90;99.90;;;;;;4955178;28;20057;-74
2023/09/07 04:04:52;;;;;;;24.58;22.33;;;17.80;99.90;;;;;;4961818;28;20039;-74
2023/09/07 04:07:19;;;;;;;24.30;22.50;;;17.80;99.90;;;;;;4978028;28;20664;-74
2023/09/07 04:09:47;;;;;;;24.55;22.60;;;17.80;99.90;;;;;;5012011;28;20053;-75
2023/09/07 04:12:14;;;;;;;25.63;23.52;;;17.80;99.90;;;;;;4939317;28;20054;-75
2023/09/07 04:14:42;;;;;;;25.63;23.42;;;17.80;99.90;;;;;;4961547;28;20053;-74
2023/09/07 04:17:09;;;;;;;23.85;22.05;;;17.80;99.90;;;;;;5031033;28;20072;-74
2023/09/07 04:19:36;;;;;;;23.90;22.27;;;17.80;99.90;;;;;;4973975;28;20034;-75
2023/09/07 04:22:03;;;;;;;25.10;23.15;;;17.80;99.90;;;;;;4956175;28;20053;-74
2023/09/07 04:24:30;;;;;;;25.08;23.17;;;17.80;99.90;;;;;;4947161;28;20099;-74
2023/09/07 04:27:01;;;;;;;26.33;24.13;;;17.80;99.90;;;;;;4963890;28;20046;-74
2023/09/07 04:29:29;;;;;;;25.58;23.67;;;17.80;99.90;;;;;;4961601;28;20050;-74
2023/09/07 04:31:56;;;;;;;24.45;22.65;;;17.80;99.90;;;;;;4953736;28;20050;-73
2023/09/07 04:34:24;;;;;;;24.75;22.75;;;17.80;99.90;;;;;;4969543;28;20557;-75
2023/09/07 04:36:52;;;;;;;24.13;22.40;;;17.70;99.90;;;;;;4960447;28;20167;-74
2023/09/07 04:39:19;;;;;;;25.15;23.20;;;17.70;99.90;;;;;;4957352;28;20138;-75
2023/09/07 04:41:47;;;;;;;25.92;23.65;;;17.70;99.90;;;;;;4943551;28;20038;-75
2023/09/07 04:44:14;;;;;;;24.38;22.48;;;17.60;99.90;;;;;;4981856;28;20046;-74
2023/09/07 04:46:42;;;;;;;23.98;22.08;;;17.60;99.90;;;;;;4953329;28;20042;-75
2023/09/07 04:49:10;;;;;;;24.73;22.80;;;17.50;99.90;;;;;;4963558;28;20612;-75
2023/09/07 04:51:37;;;;;;;23.92;22.08;;;17.50;99.90;;;;;;4961727;28;20055;-74
2023/09/07 04:54:03;;;;;;;24.02;22.15;;;17.60;99.90;;;;;;4939976;28;20133;-74
2023/09/07 04:56:31;;;;;;;24.15;22.38;;;17.50;99.90;;;;;;4970074;28;20125;-75
2023/09/07 04:58:57;;;;;;;27.38;25.58;;;17.50;99.90;;;;;;4950502;28;20063;-73
2023/09/07 05:01:25;;;;;;;28.50;26.15;;;17.50;99.90;;;;;;4967386;28;20100;-75
2023/09/07 05:03:54;;;;;;;28.33;26.13;;;17.40;99.90;;;;;;4951969;28;20042;-74
2023/09/07 05:06:22;;;;;;;28.17;25.92;;;17.50;99.90;;;;;;4962501;28;20127;-74
2023/09/07 05:08:50;;;;;;;27.30;25.50;;;17.50;99.90;;;;;;4958572;28;20127;-74
2023/09/07 05:11:17;;;;;;;27.20;25.40;;;17.60;99.90;;;;;;4985102;28;20044;-73
2023/09/07 05:13:43;;;;;;;27.80;25.52;;;17.50;99.90;;;;;;4960415;28;20053;-75
2023/09/07 05:16:10;;;;;;;28.13;25.58;;;17.50;99.90;;;;;;4969217;28;20084;-75
2023/09/07 05:18:38;;;;;;;27.70;25.45;;;17.50;99.90;;;;;;4953705;28;20066;-73
2023/09/07 05:21:15;;;;;;;26.90;24.98;;;17.60;99.90;;;;;;4953276;28;20123;-74
2023/09/07 05:23:42;;;;;;;26.25;24.50;;;17.50;99.90;;;;;;4962987;28;20042;-75
2023/09/07 05:26:09;;;;;;;26.65;24.70;;;17.60;99.90;;;;;;4939464;28;20077;-75
2023/09/07 05:28:36;;;;;;;26.80;24.98;;;17.60;99.90;;;;;;4963092;28;21274;-75
2023/09/07 05:31:03;;;;;;;26.02;24.23;;;17.70;99.90;;;;;;4958062;28;20460;-74
2023/09/07 05:33:31;;;;;;;26.58;24.65;;;17.70;99.90;;;;;;4954208;28;20061;-74
2023/09/07 05:35:58;;;;;;;25.77;23.98;;;17.80;99.90;;;;;;4962492;28;20046;-73
2023/09/07 05:38:24;;;;;;;27.38;24.95;;;17.80;99.90;;;;;;4958092;28;20662;-74
2023/09/07 05:40:54;;;;;;;27.13;25.02;;;17.80;99.90;;;;;;4981770;28;20478;-74
2023/09/07 05:43:22;;;;;;;25.52;23.73;;;17.70;99.90;;;;;;4978901;28;20135;-75
2023/09/07 05:45:49;;;;;;;26.65;24.75;;;17.90;99.90;;;;;;4971815;28;20032;-74
2023/09/07 05:48:17;;;;;;;26.77;24.75;;;17.90;99.90;;;;;;4957287;28;20595;-73
2023/09/07 05:50:45;;;;;;;26.67;24.63;;;17.80;99.90;;;;;;4973776;28;20050;-74
2023/09/07 05:53:12;;;;;;;25.88;23.98;;;17.80;99.90;;;;;;4963758;28;20039;-75
2023/09/07 05:55:39;;;;;;;27.38;25.08;;;17.80;99.90;;;;;;4976714;28;20057;-74
2023/09/07 05:58:07;;;;;;;27.38;25.25;;;17.90;99.90;;;;;;4979829;28;20104;-73
2023/09/07 06:00:39;;;;;;;27.17;25.10;;;17.90;99.90;;;;;;4963220;28;20053;-75
2023/09/07 06:03:07;;;;;;;26.45;24.73;;;17.90;99.90;;;;;;4952023;28;20046;-74
2023/09/07 06:05:36;;;;;;;26.45;24.35;;;17.80;99.90;;;;;;4978119;28;20103;-74
2023/09/07 06:08:04;;;;;;;25.35;23.65;;;17.90;99.90;;;;;;4962548;28;20741;-74
2023/09/07 06:10:31;;;;;;;26.45;24.33;;;17.90;99.90;;;;;;4966555;28;20065;-74
2023/09/07 06:12:58;;;;;;;27.42;25.35;;;17.90;99.90;;;;;;4974938;28;20592;-75
2023/09/07 06:15:29;;;;;;;27.60;25.20;;;17.90;99.90;;;;;;4968849;28;20050;-75
2023/09/07 06:17:56;;;;;;;26.77;24.80;;;18.00;99.90;;;;;;4973945;28;20153;-73
2023/09/07 06:20:23;;;;;;;26.38;24.58;;;18.00;99.90;;;;;;4946374;28;20566;-75
2023/09/07 06:22:50;;;;;;;26.75;24.85;;;18.10;99.90;;;;;;4985740;28;20050;-74
2023/09/07 06:25:17;;;;;;;26.17;24.38;;;18.10;99.90;;;;;;4942168;28;20097;-74
2023/09/07 06:27:45;;;;;;;27.58;25.60;;;18.20;99.90;;;;;;5040248;28;20053;-74
2023/09/07 06:30:12;;;;;;;26.98;24.95;;;18.30;99.90;;;;;;4938166;28;20123;-74
2023/09/07 06:32:40;;;;;;;26.45;24.55;;;18.40;99.90;;;;;;4949107;28;20040;-75
2023/09/07 06:35:08;;;;;;;26.85;24.75;;;18.40;99.90;;;;;;5029485;28;20466;-74
2023/09/07 06:37:36;;;;;;;26.15;24.40;;;18.40;99.90;;;;;;4971617;28;20042;-75
2023/09/07 06:40:03;;;;;;;27.20;24.85;;;18.40;99.90;;;;;;4983741;28;20046;-75
2023/09/07 06:42:31;;;;;;;26.05;24.25;;;18.50;99.90;;;;;;4969776;28;20061;-75
2023/09/07 06:45:04;;;;;;;25.52;23.80;;;18.60;99.90;;;;;;4950414;28;20564;-75
2023/09/07 06:47:31;;;;;;;26.25;24.25;;;18.70;99.90;;;;;;4971237;28;20507;-76
2023/09/07 06:49:59;;;;;;;26.90;24.90;;;18.80;99.90;;;;;;4963218;28;20825;-76
2023/09/07 06:52:28;;;;;;;26.88;24.88;;;18.80;99.90;;;;;;4957990;28;20994;-75
2023/09/07 06:54:55;;;;;;;27.23;25.23;;;18.80;99.90;;;;;;4966567;28;20042;-74
2023/09/07 06:57:22;;;;;;;27.45;24.67;;;18.90;99.90;;;;;;4964723;28;20050;-75
2023/09/07 06:59:51;;;;;;;27.30;25.25;;;19.00;99.90;;;;;;4943588;28;20050;-72
2023/09/07 07:02:18;;;;;;;25.48;23.58;;;19.10;99.90;;;;;;4950427;28;20058;-72
2023/09/07 07:04:46;;;;;;;26.70;24.80;;;19.30;99.90;;;;;;4975422;28;20043;-73
2023/09/07 07:07:14;;;;;;;27.75;25.33;;;19.50;99.90;;;;;;4958755;28;20042;-73
2023/09/07 07:09:45;;;;;;;26.90;24.98;;;19.70;99.90;;;;;;4965544;28;20035;-72
2023/09/07 07:12:12;;;;;;;27.45;25.15;;;19.90;99.90;;;;;;4941470;28;20050;-73
2023/09/07 07:14:40;;;;;;;27.25;24.98;;;20.10;99.90;;;;;;4983212;28;20095;-73
2023/09/07 07:17:07;;;;;;;27.42;25.42;;;20.30;99.90;;;;;;4971239;28;20090;-73
2023/09/07 07:19:35;;;;;;;27.75;25.65;;;20.60;99.90;;;;;;4964246;28;20749;-73
2023/09/07 07:22:03;;;;;;;26.20;24.30;;;20.90;99.90;;;;;;4989659;28;20046;-73
2023/09/07 07:24:32;;;;;;;26.90;25.00;;;21.00;99.90;;;;;;4965387;28;20141;-73
2023/09/07 07:26:59;;;;;;;27.15;25.27;;;21.00;99.90;;;;;;4982415;28;20874;-73
2023/09/07 07:29:29;;;;;;;27.55;25.17;;;21.50;99.90;;;;;;4953960;28;20122;-72
2023/09/07 07:32:00;;;;;;;26.55;24.55;;;21.30;99.90;;;;;;4957452;28;20543;-72
2023/09/07 07:34:27;;;;;;;27.42;25.52;;;21.50;99.90;;;;;;4945405;28;20959;-72
2023/09/07 07:36:55;;;;;;;27.77;25.52;;;21.60;99.90;;;;;;4962899;28;20532;-73
2023/09/07 07:39:22;;;;;;;27.52;25.42;;;21.80;99.90;;;;;;4964217;28;20055;-72
2023/09/07 07:41:49;;;;;;;27.55;25.60;;;21.70;99.90;;;;;;4973793;28;20507;-72
2023/09/07 07:44:17;;;;;;;28.27;26.05;;;21.70;99.90;;;;;;4959535;28;20108;-71
2023/09/07 07:46:44;;;;;;;27.35;25.42;;;21.80;99.90;;;;;;4992441;28;20062;-73
2023/09/07 07:49:11;;;;;;;27.50;25.40;;;22.10;99.90;;;;;;4954630;28;20057;-72
2023/09/07 07:51:38;;;;;;;29.13;27.05;;;22.20;99.90;;;;;;5017288;28;20062;-73
2023/09/07 07:54:05;;;;;;;29.63;27.63;;;22.20;99.90;;;;;;4971742;28;20046;-73
2023/09/07 07:56:32;;;;;;;29.50;27.08;;;21.80;99.90;;;;;;4943284;28;20104;-73
2023/09/07 07:59:01;;;;;;;31.73;29.35;;;22.40;99.90;;;;;;4968138;28;20051;-73
2023/09/07 08:01:29;;;;;;;30.73;28.52;;;22.80;99.90;;;;;;4961070;28;21440;-73
2023/09/07 08:03:57;;;;;;;32.08;29.77;;;23.00;99.90;;;;;;4976322;28;20137;-73
2023/09/07 08:06:28;;;;;;;31.42;29.20;;;22.90;99.90;;;;;;4942702;28;20694;-73
2023/09/07 08:08:55;;;;;;;32.33;29.92;;;23.00;99.90;;;;;;4954350;28;20042;-73
2023/09/07 08:11:23;;;;;;;34.35;31.88;;;23.20;99.90;;;;;;4957636;28;20578;-73
2023/09/07 08:13:51;;;;;;;34.15;31.90;;;23.30;99.90;;;;;;4951171;28;20039;-73
2023/09/07 08:16:18;;;;;;;33.60;31.45;;;23.30;99.90;;;;;;4956241;28;20089;-72
2023/09/07 08:18:45;;;;;;;34.55;32.25;;;23.00;99.90;;;;;;4973152;28;20122;-73
2023/09/07 08:21:15;;;;;;;33.72;31.52;;;23.20;99.90;;;;;;4961846;28;20042;-72
2023/09/07 08:23:42;;;;;;;35.45;33.25;;;23.50;99.90;;;;;;4979606;28;20065;-73
2023/09/07 08:26:10;;;;;;;35.70;33.30;;;23.60;99.90;;;;;;4946845;28;20042;-73
2023/09/07 08:28:39;;;;;;;35.75;33.42;;;23.70;99.90;;;;;;4953913;28;20751;-72
2023/09/07 08:31:06;;;;;;;35.78;33.47;;;24.10;99.90;;;;;;4966636;28;20045;-72
2023/09/07 08:33:39;;;;;;;36.47;34.10;;;24.00;99.90;;;;;;5027125;28;20066;-73
2023/09/07 08:36:08;;;;;;;35.03;32.30;;;23.50;99.90;;;;;;4965507;28;20061;-73
2023/09/07 08:38:35;;;;;;;36.38;33.88;;;23.80;99.90;;;;;;4954483;28;20306;-73
2023/09/07 08:41:05;;;;;;;37.20;34.67;;;23.40;99.90;;;;;;4980038;28;20055;-73
2023/09/07 08:43:45;;;;;;;36.63;33.88;;;23.50;99.90;;;;;;4958600;28;20052;-73
2023/09/07 08:46:20;;;;;;;35.97;33.65;;;23.60;99.90;;;;;;4982597;28;20051;-74
2023/09/07 08:48:49;;;;;;;36.33;33.65;;;24.00;99.90;;;;;;4967937;28;20045;-75
2023/09/07 08:51:18;;;;;;;37.42;34.90;;;24.20;99.90;;;;;;4973524;28;20034;-74
2023/09/07 08:53:46;;;;;;;36.85;34.40;;;24.20;99.90;;;;;;4977091;28;20111;-75
2023/09/07 08:56:14;;;;;;;37.63;34.90;;;23.90;99.90;;;;;;4951118;28;20050;-74
2023/09/07 08:58:44;;;;;;;36.17;33.88;;;23.60;99.90;;;;;;4967588;28;20058;-74
2023/09/07 09:01:12;;;;;;;36.97;33.88;;;23.70;99.90;;;;;;4959297;28;20132;-75
2023/09/07 09:03:41;;;;;;;36.53;34.13;;;23.90;99.90;;;;;;4978114;28;20169;-75
2023/09/07 09:06:09;;;;;;;37.03;34.25;;;24.00;99.90;;;;;;4966515;28;20061;-75
2023/09/07 09:08:49;;;;;;;35.90;33.47;;;24.00;99.90;;;;;;4964032;28;20125;-75
2023/09/07 09:11:18;;;;;;;35.58;33.28;;;24.30;99.90;;;;;;4982742;28;20056;-74
2023/09/07 09:13:45;;;;;;;35.15;32.45;;;24.60;99.90;;;;;;4960346;28;20531;-75
2023/09/07 09:16:13;;;;;;;35.53;32.95;;;24.90;99.90;;;;;;4971904;28;20164;-75
2023/09/07 09:18:54;;;;;;;35.67;33.20;;;25.30;99.90;;;;;;4947759;28;20519;-75
2023/09/07 09:21:23;;;;;;;36.30;33.90;;;25.10;99.90;;;;;;4974603;28;20058;-74
2023/09/07 09:23:52;;;;;;;36.85;34.53;;;25.00;99.90;;;;;;4968549;28;20054;-73
2023/09/07 09:26:19;;;;;;;35.65;33.33;;;25.10;99.90;;;;;;4938865;28;20616;-75
2023/09/07 09:28:47;;;;;;;38.50;35.83;;;24.80;99.90;;;;;;4979401;28;20055;-73
2023/09/07 09:31:14;;;;;;;38.53;36.03;;;24.80;99.90;;;;;;4960909;28;20104;-73
2023/09/07 09:33:42;;;;;;;38.17;35.67;;;25.00;99.90;;;;;;4957934;28;20049;-74
2023/09/07 09:36:09;;;;;;;39.45;36.72;;;25.20;99.90;;;;;;4969310;28;20655;-73
2023/09/07 09:38:36;;;;;;;39.33;36.63;;;25.40;99.90;;;;;;4971737;28;20061;-75
2023/09/07 09:41:04;;;;;;;37.88;35.25;;;25.10;99.90;;;;;;4987199;28;20109;-73
2023/09/07 09:43:31;;;;;;;37.42;35.08;;;25.40;99.90;;;;;;4943656;28;20055;-73
2023/09/07 09:45:59;;;;;;;39.13;36.67;;;25.70;99.90;;;;;;4987717;28;20046;-73
2023/09/07 09:48:28;;;;;;;39.70;37.10;;;25.90;99.90;;;;;;4963064;28;20046;-73
2023/09/07 09:50:56;;;;;;;38.15;35.75;;;25.90;99.90;;;;;;4976215;28;20046;-74
2023/09/07 09:53:26;;;;;;;39.97;37.17;;;25.70;99.90;;;;;;4971368;28;20042;-73
2023/09/07 09:55:53;;;;;;;37.55;34.85;;;25.80;99.90;;;;;;4967302;28;20127;-73
2023/09/07 09:58:21;;;;;;;38.05;35.35;;;26.20;99.90;;;;;;4953611;28;20062;-73
2023/09/07 10:00:52;;;;;;;37.05;34.72;;;26.20;99.90;;;;;;4984869;28;20055;-72
2023/09/07 10:03:27;;;;;;;37.22;34.60;;;25.90;99.90;;;;;;4957038;28;20065;-73
2023/09/07 10:05:54;;;;;;;36.70;34.20;;;25.90;99.90;;;;;;4952467;28;20133;-74
2023/09/07 10:08:24;;;;;;;38.67;35.95;;;26.20;99.90;;;;;;4953899;28;20137;-72
2023/09/07 10:10:56;;;;;;;37.33;35.03;;;25.80;99.90;;;;;;4959345;28;20061;-73
2023/09/07 10:13:31;;;;;;;38.63;36.13;;;25.90;99.90;;;;;;4966145;28;20062;-76
2023/09/07 10:16:09;;;;;;;39.85;37.13;;;26.10;99.90;;;;;;4982859;28;20133;-76
2023/09/07 10:18:38;;;;;;;39.20;36.60;;;26.50;99.90;;;;;;4965379;28;20051;-73
2023/09/07 10:21:06;;;;;;;38.25;35.65;;;25.90;99.90;;;;;;5037537;28;20050;-72
2023/09/07 10:23:44;;;;;;;38.28;35.67;;;26.00;99.90;;;;;;4957822;28;20145;-72
2023/09/07 10:26:15;;;;;;;37.58;34.95;;;26.10;99.90;;;;;;4975435;28;20529;-73
2023/09/07 10:28:44;;;;;;;39.47;36.97;;;26.80;99.90;;;;;;4954609;28;20571;-73
2023/09/07 10:31:19;;;;;;;37.08;34.50;;;26.70;99.90;;;;;;5034454;28;20173;-73
2023/09/07 10:33:51;;;;;;;39.53;36.92;;;27.00;99.90;;;;;;4981170;28;20575;-76
2023/09/07 10:36:27;;;;;;;39.15;36.55;;;26.80;99.90;;;;;;4981134;28;20488;-75
2023/09/07 10:38:56;;;;;;;38.13;35.45;;;26.80;99.90;;;;;;4970103;28;20054;-75
2023/09/07 10:41:23;;;;;;;39.50;37.10;;;26.50;99.90;;;;;;4976166;28;20608;-75
2023/09/07 10:43:51;;;;;;;39.70;37.13;;;26.40;99.90;;;;;;4994405;28;20062;-74
2023/09/07 10:46:20;;;;;;;37.17;34.88;;;26.70;99.90;;;;;;4967905;28;20467;-74
2023/09/07 10:48:51;;;;;;;39.03;36.33;;;26.90;99.90;;;;;;4966201;28;20137;-74
2023/09/07 10:51:19;;;;;;;39.45;36.78;;;27.00;99.90;;;;;;4958833;28;20061;-75
2023/09/07 10:53:46;;;;;;;41.63;39.00;;;27.40;99.90;;;;;;5036280;28;20052;-74
2023/09/07 10:56:13;;;;;;;39.65;37.15;;;27.10;99.90;;;;;;4960836;28;20081;-76
2023/09/07 10:58:42;;;;;;;39.35;36.95;;;27.10;99.90;;;;;;4959969;28;20329;-75
2023/09/07 11:01:09;;;;;;;39.72;37.30;;;27.30;99.90;;;;;;5017339;28;20552;-74
2023/09/07 11:03:37;;;;;;;39.60;36.97;;;27.00;99.90;;;;;;4959968;28;20050;-75
2023/09/07 11:06:15;;;;;;;39.80;37.13;;;27.10;99.90;;;;;;4971360;28;20053;-74
2023/09/07 11:08:42;;;;;;;38.42;35.63;;;26.90;99.90;;;;;;4952606;28;20054;-76
2023/09/07 11:11:09;;;;;;;38.45;35.60;;;27.00;99.90;;;;;;4993569;28;20040;-72
2023/09/07 11:13:36;;;;;;;36.47;34.17;;;27.10;99.90;;;;;;4961703;28;20533;-74
2023/09/07 11:16:08;;;;;;;38.92;36.35;;;27.30;99.90;;;;;;4977697;28;20178;-76
2023/09/07 11:18:35;;;;;;;39.65;36.78;;;27.30;99.90;;;;;;4980962;28;20055;-74
2023/09/07 11:21:04;;;;;;;38.20;35.70;;;27.30;99.90;;;;;;4955079;28;20061;-72
2023/09/07 11:23:37;;;;;;;39.35;36.60;;;27.60;99.90;;;;;;4969978;28;20050;-72
2023/09/07 11:26:05;;;;;;;40.27;37.77;;;27.80;99.90;;;;;;4972911;28;20348;-72
2023/09/07 11:28:32;;;;;;;39.75;37.10;;;27.80;99.90;;;;;;4955916;28;20466;-75
2023/09/07 11:30:59;;;;;;;39.80;37.17;;;27.60;99.90;;;;;;4970686;28;20039;-74
2023/09/07 11:33:27;;;;;;;37.80;35.05;;;27.80;99.90;;;;;;4953756;28;20633;-72
2023/09/07 11:35:54;;;;;;;38.42;35.90;;;28.20;99.90;;;;;;4979731;28;20089;-74
2023/09/07 11:38:22;;;;;;;39.85;37.15;;;27.90;99.90;;;;;;4969535;28;20062;-72
2023/09/07 11:40:49;;;;;;;40.40;37.78;;;27.70;99.90;;;;;;4965579;28;20039;-72
2023/09/07 11:43:20;;;;;;;39.65;36.85;;;27.30;99.90;;;;;;4959601;28;20053;-72
2023/09/07 11:45:47;;;;;;;39.92;36.90;;;27.30;99.90;;;;;;4972393;28;20046;-74
2023/09/07 11:48:14;;;;;;;39.70;37.10;;;27.40;99.90;;;;;;4980805;28;20031;-75
2023/09/07 11:50:43;;;;;;;38.53;35.80;;;27.40;99.90;;;;;;4982469;28;20038;-74
2023/09/07 11:53:10;;;;;;;38.97;36.25;;;27.60;99.90;;;;;;4965334;28;20042;-74
2023/09/07 11:55:37;;;;;;;38.17;35.72;;;27.50;99.90;;;;;;4969403;28;20047;-74
2023/09/07 11:58:04;;;;;;;38.38;35.67;;;27.50;99.90;;;;;;4957641;28;20147;-74
2023/09/07 12:00:31;;;;;;;39.20;36.53;;;27.20;99.90;;;;;;4958964;28;20647;-75
2023/09/07 12:02:59;;;;;;;39.10;36.35;;;27.30;99.90;;;;;;4975336;28;20047;-73
2023/09/07 12:05:26;;;;;;;38.70;36.20;;;27.40;99.90;;;;;;4973198;28;20176;-74
2023/09/07 12:07:53;;;;;;;38.15;35.63;;;27.40;99.90;;;;;;4974744;28;20038;-71
2023/09/07 12:10:21;;;;;;;39.17;36.60;;;27.20;99.90;;;;;;4960849;28;20057;-75
2023/09/07 12:12:48;;;;;;;38.95;36.45;;;27.50;99.90;;;;;;4969733;28;20049;-73
2023/09/07 12:15:14;;;;;;;39.58;36.80;;;27.60;99.90;;;;;;4974463;28;20106;-75
2023/09/07 12:17:41;;;;;;;38.67;35.78;;;27.50;99.90;;;;;;4977412;28;20077;-73
2023/09/07 12:20:10;;;;;;;38.95;36.03;;;27.50;99.90;;;;;;4966243;28;20084;-74
2023/09/07 12:22:37;;;;;;;37.90;35.50;;;27.40;99.90;;;;;;4980049;28;20056;-74
2023/09/07 12:25:06;;;;;;;38.65;36.15;;;27.40;99.90;;;;;;4955897;28;20038;-74
2023/09/07 12:27:46;;;;;;;39.38;36.78;;;27.30;99.90;;;;;;4963436;28;20084;-74
2023/09/07 12:30:20;;;;;;;39.63;37.15;;;27.10;99.90;;;;;;4953705;28;20084;-74
2023/09/07 12:32:48;;;;;;;38.65;36.13;;;27.00;99.90;;;;;;4955973;28;20049;-74